EPRZ/RZE METAR and TAF weather

Enter ICAO airport designator
Station Type Date Time Source
EPRZ METAR 2019/12/14 11:00 UTC NOAA

EPRZ 141100Z 10007KT 4500 -SHRA BR BKN026CB 03/03 Q0997


Station Type Date Time Source
EPRZ Decoded METAR 2019/12/14 11:00 UTC NOAA

Rzeszow-Jasionka, Poland (EPRZ) 50-06N 022-03E 202M
Dec 14, 2019 - 06:00 AM EST / 2019.12.14 1100 UTC
Wind: from the E (100 degrees) at 8 MPH (7 KT):0
Visibility: 2 mile(s):0
Sky conditions: mostly cloudy
Weather: light rain showers; mist; Cumulonimbus clouds observed
Temperature: 37 F (3 C)
Dew Point: 37 F (3 C)
Relative Humidity: 100%
Pressure (altimeter): 29.44 in. Hg (0997 hPa)
ob: EPRZ 141100Z 10007KT 4500 -SHRA BR BKN026CB 03/03 Q0997
cycle: 11

Station Type Date Time Source
EPRZ TAF 2019/12/14 07:40 UTC NOAA

TAF
AMD EPRZ 140725Z 1407/1506 10010KT 2500 BR BKN002
BECMG 1407/1409 9000
BECMG 1409/1412 18012KT BKN030
TEMPO 1409/1421 4000 SHRA BKN013CB
BECMG 1418/1421 24010KT

Example: see airport list